createdAt,value
2023-05-19T00:06:34.451Z,75835.53
2023-05-19T00:16:39.497Z,75853.72
2023-05-19T00:26:41.702Z,75876.00
2023-05-19T00:36:46.318Z,75880.03
2023-05-19T00:46:56.203Z,75890.16
2023-05-19T00:56:59.623Z,75894.22
2023-05-19T01:07:04.168Z,75884.09
2023-05-19T01:17:23.442Z,75886.13
2023-05-19T01:28:03.285Z,75884.09
2023-05-19T01:38:10.966Z,75878.03
2023-05-19T01:48:18.254Z,75871.94
2023-05-19T01:58:21.049Z,75863.84
2023-05-19T02:08:49.396Z,75857.78
2023-05-19T02:18:55.660Z,75859.81
2023-05-19T02:28:57.895Z,75859.81
2023-05-19T02:39:02.556Z,75843.63
2023-05-19T02:49:05.348Z,75847.66
2023-05-19T02:59:10.169Z,75851.72
2023-05-19T03:09:13.507Z,75857.78
2023-05-19T03:19:15.975Z,75873.97
2023-05-19T03:29:18.240Z,75876.00
2023-05-19T03:39:24.197Z,75894.22
2023-05-19T03:49:29.779Z,75916.47
2023-05-19T04:00:11.625Z,75938.75
2023-05-19T04:10:16.874Z,75956.94
2023-05-19T04:20:22.053Z,75977.19
2023-05-19T04:30:26.134Z,75977.19
2023-05-19T04:40:33.708Z,75963.03
2023-05-19T04:50:42.406Z,75969.09
2023-05-19T05:00:45.166Z,75977.19
2023-05-19T05:10:48.137Z,75969.09
2023-05-19T05:20:52.339Z,75979.22
2023-05-19T05:30:56.610Z,75987.31
2023-05-19T05:41:03.352Z,75975.16
2023-05-19T05:51:07.647Z,75981.25
2023-05-19T06:01:12.675Z,75979.22
2023-05-19T06:11:15.584Z,75971.13
2023-05-19T06:21:20.465Z,75981.25
2023-05-19T06:31:23.317Z,75965.03
2023-05-19T06:41:35.257Z,75948.84
2023-05-19T06:51:42.656Z,75954.94
2023-05-19T07:01:49.916Z,75928.63
2023-05-19T07:11:57.746Z,75918.50
2023-05-19T07:22:02.911Z,75928.63
2023-05-19T07:32:07.787Z,75908.38
2023-05-19T07:42:14.991Z,75880.03
2023-05-19T07:52:19.557Z,75884.09
2023-05-19T08:02:24.450Z,75863.84
2023-05-19T08:12:26.993Z,75851.72
2023-05-19T08:22:32.510Z,75863.84
2023-05-19T08:32:35.358Z,75827.44
2023-05-19T08:42:37.900Z,75819.31
2023-05-19T08:52:53.512Z,75825.41
2023-05-19T09:03:06.165Z,75809.22
2023-05-19T09:13:21.176Z,75782.91
2023-05-19T09:23:29.252Z,75778.84
2023-05-19T09:33:38.711Z,75742.41
2023-05-19T09:43:41.020Z,75714.09
2023-05-19T09:53:50.926Z,75695.88
2023-05-19T10:03:54.966Z,75675.63
2023-05-19T10:13:57.349Z,75679.69
2023-05-19T10:24:04.364Z,75673.63
2023-05-19T10:34:19.667Z,75641.22
2023-05-19T10:44:41.951Z,75600.75
2023-05-19T10:54:46.712Z,75548.13
2023-05-19T11:04:52.072Z,75566.34
2023-05-19T11:15:00.015Z,75519.81
2023-05-19T11:25:02.356Z,75481.34
2023-05-19T11:35:04.975Z,75519.81
2023-05-19T11:45:13.914Z,75479.34
2023-05-19T11:55:23.452Z,75453.03
2023-05-19T12:05:36.635Z,75432.78
2023-05-19T12:15:41.414Z,75483.38
2023-05-19T12:25:45.952Z,75455.06
2023-05-19T12:35:50.216Z,75430.75
2023-05-19T12:45:54.885Z,75412.56
2023-05-19T12:55:59.652Z,75438.88
2023-05-19T13:06:04.984Z,75432.78
2023-05-19T13:16:08.603Z,75442.91
2023-05-19T13:26:14.066Z,75446.97
2023-05-19T13:36:21.246Z,75404.47
2023-05-19T13:46:36.368Z,75424.69
2023-05-19T13:56:48.847Z,75428.75
2023-05-19T14:06:53.263Z,75426.72
2023-05-19T14:17:01.570Z,75432.78
2023-05-19T14:27:07.611Z,75414.56
2023-05-19T14:37:12.673Z,75410.53
2023-05-19T14:47:16.863Z,75386.25
2023-05-19T14:57:21.308Z,75388.28
2023-05-19T15:07:26.352Z,75404.47
2023-05-19T15:17:28.694Z,75398.38
2023-05-19T15:27:37.602Z,75396.38
2023-05-19T15:37:42.221Z,75378.16
2023-05-19T15:47:45.157Z,75372.09
2023-05-19T15:57:52.832Z,75366.00
2023-05-19T16:07:55.015Z,75364.00
2023-05-19T16:18:02.067Z,75374.09
2023-05-19T16:28:11.291Z,75366.00
2023-05-19T16:38:13.541Z,75353.88
2023-05-19T16:48:20.302Z,75357.91
2023-05-19T16:58:26.561Z,75382.19
2023-05-19T17:08:34.617Z,75370.06
2023-05-19T17:18:37.681Z,75361.97
2023-05-19T17:28:43.624Z,75349.81
2023-05-19T17:38:45.903Z,75345.78
2023-05-19T17:48:53.851Z,75339.69
2023-05-19T17:59:01.859Z,75345.78
2023-05-19T18:09:06.316Z,75343.75
2023-05-19T18:19:11.497Z,75337.69
2023-05-19T18:29:14.878Z,75335.66
2023-05-19T18:39:17.022Z,75347.78
2023-05-19T18:49:20.226Z,75366.00
2023-05-19T18:59:27.880Z,75370.06
2023-05-19T19:09:30.132Z,75390.28
2023-05-19T19:19:35.945Z,75390.28
2023-05-19T19:29:38.747Z,75394.34
2023-05-19T19:39:41.980Z,75398.38
2023-05-19T19:49:46.340Z,75414.56
2023-05-19T19:59:55.420Z,75432.78
2023-05-19T20:10:02.095Z,75442.91
2023-05-19T20:20:11.991Z,75455.06
2023-05-19T20:30:16.631Z,75463.16
2023-05-19T20:40:19.023Z,75459.09
2023-05-19T20:50:23.647Z,75459.09
2023-05-19T21:00:30.242Z,75459.09
2023-05-19T21:10:35.799Z,75444.94
2023-05-19T21:20:40.329Z,75426.72
2023-05-19T21:30:42.556Z,75440.88
2023-05-19T21:40:47.428Z,75438.88
2023-05-19T21:50:56.426Z,75438.88
2023-05-19T22:01:01.060Z,75438.88
2023-05-19T22:11:06.962Z,75438.88
2023-05-19T22:21:16.260Z,75463.16
2023-05-19T22:31:20.959Z,75465.16
2023-05-19T22:41:24.040Z,75442.91
2023-05-19T22:51:28.672Z,75446.97
2023-05-19T23:01:30.878Z,75446.97
2023-05-19T23:11:34.334Z,75442.91
2023-05-19T23:21:36.626Z,75432.78
2023-05-19T23:31:44.627Z,75440.88
2023-05-19T23:41:49.373Z,75448.97
2023-05-19T23:51:56.574Z,75442.91
